Time;durP1;ratioP1;P1;durP2;ratioP2;P2;SDS_P1;SDS_P2;PMS_P1;PMS_P2;Temp;Humidity;BMP_temperature;BMP_pressure;BME280_temperature;BME280_humidity;BME280_pressure;Samples;Min_cycle;Max_cycle;Signal;HPM_P1;HPM_P2
2022/12/29 00:00:07;;;;;;;4.22;4.03;;;;;;;9.15;100.00;100003.19;6138269;23;20033;-76
2022/12/29 00:02:33;;;;;;;3.78;3.67;;;;;;;9.02;100.00;99981.28;6142794;23;20024;-75
2022/12/29 00:04:59;;;;;;;4.25;4.05;;;;;;;8.79;100.00;99931.09;6137972;23;20028;-77
2022/12/29 00:07:26;;;;;;;4.15;3.95;;;;;;;9.31;100.00;99997.06;6135776;23;20333;-74
2022/12/29 00:09:52;;;;;;;4.20;4.00;;;;;;;9.07;100.00;99947.81;6133688;23;20028;-76
2022/12/29 00:12:19;;;;;;;4.18;3.97;;;;;;;9.02;100.00;99949.88;6140704;23;20036;-75
2022/12/29 00:17:30;;;;;;;3.90;3.70;;;;;;;8.24;100.00;99799.97;6140714;23;20036;-76
2022/12/29 00:36:36;;;;;;;4.00;3.80;;;;;;;9.59;100.00;99981.41;6147539;23;20260;-74
2022/12/29 00:44:37;;;;;;;3.90;3.70;;;;;;;9.57;100.00;99961.50;6145652;23;20498;-75
2022/12/29 00:47:04;;;;;;;4.13;3.92;;;;;;;9.58;100.00;99958.78;6135901;23;20047;-75
2022/12/29 00:49:32;;;;;;;7.28;4.07;;;;;;;9.72;100.00;99967.56;6143335;23;20086;-75
2022/12/29 00:52:00;;;;;;;4.00;3.80;;;;;;;9.74;100.00;99968.31;6143781;23;20415;-74
2022/12/29 00:54:29;;;;;;;4.40;4.10;;;;;;;9.30;100.00;99878.41;6139483;23;20017;-74
2022/12/29 00:56:55;;;;;;;4.25;4.05;;;;;;;9.68;100.00;99930.25;6115288;23;20108;-75
2022/12/29 00:59:23;;;;;;;4.00;3.80;;;;;;;9.71;100.00;99944.94;6145934;23;20115;-74
2022/12/29 01:01:52;;;;;;;3.95;3.78;;;;;;;8.95;100.00;99842.06;6107155;23;20550;-74
2022/12/29 01:04:20;;;;;;;4.20;4.00;;;;;;;9.64;100.00;99949.72;6135437;23;20022;-73
2022/12/29 01:06:46;;;;;;;4.15;3.95;;;;;;;9.63;100.00;99944.56;6116026;23;20461;-76
2022/12/29 01:11:59;;;;;;;4.32;4.13;;;;;;;10.06;100.00;99957.66;6140571;23;20036;-75
2022/12/29 01:14:26;;;;;;;4.10;3.90;;;;;;;10.04;100.00;99962.16;6144120;23;20021;-74
2022/12/29 01:16:54;;;;;;;4.00;3.80;;;;;;;9.59;100.00;99951.75;6143537;23;20033;-74
2022/12/29 01:19:21;;;;;;;9.48;4.38;;;;;;;9.64;100.00;99925.28;6152919;23;20033;-74
2022/12/29 01:21:48;;;;;;;4.20;4.00;;;;;;;9.86;100.00;99970.22;6139153;23;20475;-75
2022/12/29 01:24:16;;;;;;;4.22;4.03;;;;;;;9.92;100.00;99977.72;6138829;23;20088;-73
2022/12/29 01:26:46;;;;;;;3.97;3.78;;;;;;;9.97;100.00;99962.53;6140645;23;20457;-73
2022/12/29 01:29:12;;;;;;;3.92;3.72;;;;;;;9.90;100.00;99936.78;6143066;23;20087;-73
2022/12/29 01:31:39;;;;;;;3.83;3.72;;;;;;;9.83;100.00;99917.97;6142310;23;20026;-72
2022/12/29 01:34:06;;;;;;;4.45;4.25;;;;;;;10.33;100.00;99989.22;6140833;23;20467;-75
2022/12/29 01:36:33;;;;;;;3.60;3.50;;;;;;;9.96;100.00;99908.44;6135558;23;20247;-75
2022/12/29 01:39:00;;;;;;;4.15;3.95;;;;;;;10.40;100.00;99987.88;6142728;23;20420;-73
2022/12/29 01:41:26;;;;;;;3.90;3.75;;;;;;;10.10;100.00;99923.31;6145782;23;20027;-76
2022/12/29 01:44:00;;;;;;;4.03;3.83;;;;;;;10.51;100.00;99985.44;6140703;23;20090;-76
2022/12/29 01:46:31;;;;;;;4.18;3.97;;;;;;;10.51;100.00;99981.97;6144452;23;20701;-76
2022/12/29 01:49:05;;;;;;;4.20;4.00;;;;;;;10.44;100.00;99975.44;6141263;23;20020;-75
2022/12/29 01:51:40;;;;;;;4.30;4.10;;;;;;;10.51;100.00;99976.72;6144154;23;20009;-75
2022/12/29 01:54:13;;;;;;;3.90;3.80;;;;;;;10.19;100.00;99901.72;6135425;23;20103;-74
2022/12/29 01:56:40;;;;;;;4.10;3.90;;;;;;;10.54;100.00;99945.91;6141974;23;20028;-74
2022/12/29 01:59:12;;;;;;;4.13;3.92;;;;;;;10.54;100.00;99964.28;6109853;23;20702;-73
2022/12/29 02:01:39;;;;;;;4.10;3.90;;;;;;;10.71;100.00;99960.56;6145836;23;20020;-75
2022/12/29 02:04:09;;;;;;;4.00;3.80;;;;;;;10.35;100.00;99909.50;6115857;23;20010;-76
2022/12/29 02:06:41;;;;;;;4.05;3.85;;;;;;;10.42;100.00;99928.31;6131754;23;20029;-75
2022/12/29 02:09:07;;;;;;;4.65;4.43;;;;;;;10.30;100.00;99916.84;6154838;23;20404;-75
2022/12/29 02:11:36;;;;;;;4.00;3.80;;;;;;;10.22;100.00;99892.00;6144213;23;20024;-73
2022/12/29 02:14:09;;;;;;;4.20;4.00;;;;;;;10.13;100.00;99872.44;6136079;23;20467;-74
2022/12/29 02:17:03;;;;;;;3.90;3.70;;;;;;;10.62;100.00;99945.38;6145947;23;20017;-75
2022/12/29 02:19:51;;;;;;;3.90;3.75;;;;;;;10.64;100.00;99911.19;6141166;23;20329;-75
2022/12/29 02:22:40;;;;;;;5.10;4.90;;;;;;;10.60;100.00;99904.47;6139600;23;20025;-75
2022/12/29 02:25:28;;;;;;;4.05;3.85;;;;;;;10.67;100.00;99914.47;6140186;23;20029;-75
2022/12/29 02:28:17;;;;;;;4.38;4.18;;;;;;;10.68;100.00;99910.88;6144761;23;20074;-75
2022/12/29 02:30:51;;;;;;;4.00;3.80;;;;;;;10.58;100.00;99917.66;6149547;23;20682;-74
2022/12/29 02:33:48;;;;;;;4.00;3.80;;;;;;;10.44;100.00;99886.25;6115213;23;20013;-74
2022/12/29 02:36:19;;;;;;;4.07;3.88;;;;;;;10.56;100.00;99909.06;6143643;23;20077;-75
2022/12/29 02:39:13;;;;;;;4.10;3.90;;;;;;;10.42;100.00;99867.97;6138153;23;20017;-75
2022/12/29 02:42:07;;;;;;;4.38;4.18;;;;;;;10.35;100.00;99846.56;6138921;23;20103;-73
2022/12/29 02:44:51;;;;;;;4.18;3.97;;;;;;;10.28;100.00;99815.53;6115063;23;20021;-74
2022/12/29 02:47:38;;;;;;;3.80;3.70;;;;;;;10.68;100.00;99866.25;6133265;23;20232;-74
2022/12/29 02:50:18;;;;;;;4.50;4.30;;;;;;;10.55;100.00;99855.75;6142568;23;20005;-73
2022/12/29 02:52:56;;;;;;;4.30;4.10;;;;;;;10.43;100.00;99845.22;6128060;23;20036;-74
2022/12/29 02:55:23;;;;;;;4.10;3.90;;;;;;;10.68;100.00;99902.16;6133544;23;20029;-76
2022/12/29 02:58:13;;;;;;;4.47;4.15;;;;;;;10.36;100.00;99785.31;6127578;23;20454;-72
2022/12/29 03:01:03;;;;;;;3.95;3.75;;;;;;;10.71;100.00;99850.34;6109370;23;20178;-75
2022/12/29 03:03:58;;;;;;;4.30;4.10;;;;;;;10.87;100.00;99891.31;6140526;23;20347;-75
2022/12/29 03:07:00;;;;;;;4.10;3.90;;;;;;;10.91;100.00;99880.50;6077417;23;20029;-76
2022/12/29 03:09:45;;;;;;;4.32;4.13;;;;;;;10.87;100.00;99889.53;6133534;23;20013;-74
2022/12/29 03:18:24;;;;;;;4.10;3.90;;;;;;;10.85;100.00;99877.47;6128154;23;20581;-74
2022/12/29 03:21:07;;;;;;;4.20;4.00;;;;;;;10.86;100.00;99884.38;6117639;23;20046;-74
2022/12/29 03:23:36;;;;;;;4.03;3.83;;;;;;;10.70;100.00;99837.31;6130969;23;20280;-73
2022/12/29 03:26:08;;;;;;;5.30;4.13;;;;;;;9.77;100.00;99693.03;6142050;23;20608;-76
2022/12/29 03:28:44;;;;;;;4.10;3.90;;;;;;;10.91;100.00;99877.03;6143058;23;20136;-75
2022/12/29 03:31:13;;;;;;;4.22;4.03;;;;;;;10.60;100.00;99813.47;6136435;23;20099;-72
2022/12/29 03:33:41;;;;;;;4.03;3.83;;;;;;;10.93;100.00;99868.13;6141905;23;20025;-72
2022/12/29 03:36:16;;;;;;;3.88;3.75;;;;;;;10.91;100.00;99871.78;6115480;23;20181;-73
2022/12/29 03:38:59;;;;;;;4.18;3.97;;;;;;;10.75;100.00;99837.84;6136312;23;20459;-73
2022/12/29 03:41:30;;;;;;;4.82;3.92;;;;;;;10.68;100.00;99826.91;6143358;23;20087;-74
2022/12/29 03:43:57;;;;;;;4.40;4.20;;;;;;;10.74;100.00;99823.91;6088153;23;20029;-73
2022/12/29 03:46:23;;;;;;;4.57;4.38;;;;;;;10.88;100.00;99845.72;6140161;23;20104;-73
2022/12/29 03:48:50;;;;;;;4.40;4.20;;;;;;;10.41;100.00;99761.38;6114193;23;20348;-74
2022/12/29 03:51:16;;;;;;;4.28;4.07;;;;;;;10.77;100.00;99823.69;6135382;23;20005;-73
2022/12/29 03:53:44;;;;;;;4.70;4.40;;;;;;;10.76;100.00;99831.66;6141287;23;20040;-74
2022/12/29 03:56:10;;;;;;;4.88;4.15;;;;;;;10.68;100.00;99800.66;6137862;23;20088;-75
2022/12/29 03:58:37;;;;;;;4.10;3.90;;;;;;;10.66;100.00;99786.81;6117639;23;20326;-73
2022/12/29 04:01:03;;;;;;;4.55;4.30;;;;;;;11.07;100.00;99846.19;6117922;23;20578;-75
2022/12/29 04:03:29;;;;;;;4.20;4.00;;;;;;;11.01;100.00;99838.72;6145415;23;20507;-75
2022/12/29 04:05:56;;;;;;;4.30;4.10;;;;;;;10.63;100.00;99780.94;6126075;23;20099;-75
2022/12/29 04:08:22;;;;;;;4.55;4.35;;;;;;;10.65;100.00;99813.16;6143242;23;20353;-75
2022/12/29 04:10:49;;;;;;;4.22;4.00;;;;;;;9.98;100.00;99690.75;6146602;23;20437;-73
2022/12/29 04:13:16;;;;;;;4.43;4.22;;;;;;;10.19;100.00;99757.53;6144041;23;20036;-75
2022/12/29 04:15:44;;;;;;;4.20;4.00;;;;;;;10.61;100.00;99845.81;6145006;23;20025;-74
2022/12/29 04:18:12;;;;;;;4.20;4.00;;;;;;;10.22;100.00;99769.56;6147648;23;20024;-75
2022/12/29 04:23:23;;;;;;;4.07;3.88;;;;;;;10.21;100.00;99781.03;6139417;23;20017;-75
2022/12/29 04:25:50;;;;;;;4.15;3.95;;;;;;;10.75;100.00;99862.31;6152042;23;20024;-73
2022/12/29 04:28:17;;;;;;;4.45;4.25;;;;;;;10.87;100.00;99862.44;6149376;23;20025;-76
2022/12/29 04:30:45;;;;;;;4.10;3.90;;;;;;;10.28;100.00;99742.13;6122817;23;20045;-75
2022/12/29 04:33:12;;;;;;;4.35;4.15;;;;;;;10.63;100.00;99794.06;6150533;23;20022;-75
2022/12/29 04:35:39;;;;;;;4.20;4.00;;;;;;;10.58;100.00;99771.59;6148092;23;20031;-76
2022/12/29 04:38:08;;;;;;;4.35;4.15;;;;;;;11.06;100.00;99836.59;6126407;23;20023;-76
2022/12/29 04:40:34;;;;;;;4.10;3.90;;;;;;;10.08;100.00;99670.91;6112024;23;20013;-75
2022/12/29 04:43:01;;;;;;;4.40;4.20;;;;;;;11.01;100.00;99820.34;6143258;23;20086;-77
2022/12/29 04:45:27;;;;;;;4.15;3.95;;;;;;;11.17;100.00;99835.91;6145124;23;20473;-74
2022/12/29 04:47:54;;;;;;;4.30;4.10;;;;;;;10.94;100.00;99795.44;6143611;23;20078;-75
2022/12/29 04:50:20;;;;;;;4.40;4.10;;;;;;;10.76;100.00;99774.78;6140051;23;20029;-75
2022/12/29 04:52:46;;;;;;;4.30;4.10;;;;;;;10.83;98.52;99763.84;6123829;23;20072;-73
2022/12/29 04:55:13;;;;;;;4.10;3.90;;;;;;;10.93;98.91;99780.66;6153950;23;20048;-73
2022/12/29 04:57:40;;;;;;;4.20;4.00;;;;;;;11.01;99.00;99819.50;6145869;23;20184;-75
2022/12/29 05:00:08;;;;;;;4.30;4.10;;;;;;;11.16;98.92;99814.06;6153900;23;20013;-73
2022/12/29 05:02:36;;;;;;;4.20;4.00;;;;;;;11.15;98.16;99801.03;6142687;23;20372;-73
2022/12/29 05:05:04;;;;;;;4.40;4.20;;;;;;;10.81;97.83;99750.00;6140496;23;20040;-73
2022/12/29 05:07:33;;;;;;;4.40;4.20;;;;;;;10.89;97.76;99761.63;6151993;23;20108;-72
2022/12/29 05:09:59;;;;;;;4.60;4.35;;;;;;;10.62;97.65;99727.59;6149157;23;20029;-73
2022/12/29 05:12:30;;;;;;;4.47;4.28;;;;;;;10.90;98.60;99794.81;6135941;23;20491;-74
2022/12/29 05:14:56;;;;;;;4.50;4.30;;;;;;;11.14;99.00;99810.66;6118644;23;20038;-72
2022/12/29 05:17:22;;;;;;;4.30;4.10;;;;;;;11.09;98.01;99823.28;6137989;23;20162;-74
2022/12/29 05:19:49;;;;;;;4.40;4.20;;;;;;;11.29;96.16;99828.97;6142594;23;20080;-74
2022/12/29 05:22:15;;;;;;;5.13;4.18;;;;;;;11.18;97.06;99834.94;6140294;23;20392;-75
2022/12/29 05:24:43;;;;;;;4.10;3.90;;;;;;;10.85;97.48;99780.34;6144614;23;20021;-74
2022/12/29 05:27:10;;;;;;;4.40;4.20;;;;;;;10.98;96.26;99778.53;6137056;23;20142;-73
2022/12/29 05:29:36;;;;;;;4.55;4.20;;;;;;;11.05;95.07;99785.06;6143660;23;20025;-74
2022/12/29 05:32:03;;;;;;;4.65;4.40;;;;;;;11.01;93.67;99759.13;6119791;23;20035;-73
2022/12/29 05:34:29;;;;;;;4.47;4.28;;;;;;;10.88;93.65;99754.69;6135788;23;20471;-73
2022/12/29 05:36:55;;;;;;;4.25;4.05;;;;;;;11.06;94.62;99786.72;6143403;23;20005;-75
2022/12/29 05:39:22;;;;;;;4.40;4.10;;;;;;;11.21;93.96;99818.16;6143009;23;20025;-72
2022/12/29 05:41:49;;;;;;;4.30;4.10;;;;;;;10.74;94.53;99745.16;6144256;23;20061;-74
2022/12/29 05:44:15;;;;;;;4.13;3.92;;;;;;;10.60;94.54;99745.25;6143114;23;20090;-76
2022/12/29 05:46:43;;;;;;;4.20;4.00;;;;;;;10.99;94.80;99824.84;6145338;23;20009;-73
2022/12/29 05:49:10;;;;;;;4.30;4.10;;;;;;;10.93;95.51;99830.53;6140044;23;20019;-73
2022/12/29 05:51:36;;;;;;;4.18;3.97;;;;;;;10.93;95.87;99838.41;6140036;23;20027;-75
2022/12/29 05:54:20;;;;;;;4.35;4.15;;;;;;;10.76;95.93;99816.75;6140070;23;20056;-74
2022/12/29 05:56:46;;;;;;;4.47;4.18;;;;;;;10.73;95.95;99809.09;6142922;23;20013;-74
2022/12/29 05:59:12;;;;;;;4.20;4.00;;;;;;;10.89;96.96;99834.31;6136543;23;20096;-74
2022/12/29 06:01:39;;;;;;;4.13;3.92;;;;;;;10.51;96.33;99783.44;6143866;23;20009;-75
2022/12/29 06:04:06;;;;;;;4.35;4.15;;;;;;;10.96;95.98;99838.19;6135932;23;20017;-74
2022/12/29 06:06:32;;;;;;;4.15;3.95;;;;;;;10.85;96.55;99838.09;6144697;23;20387;-73
2022/12/29 06:08:58;;;;;;;4.40;4.20;;;;;;;10.85;96.75;99853.84;6140734;23;20023;-74
2022/12/29 06:11:25;;;;;;;4.30;4.10;;;;;;;10.47;96.78;99787.22;6140602;23;20408;-74
2022/12/29 06:13:51;;;;;;;4.55;4.20;;;;;;;10.33;97.26;99767.13;6145221;23;20070;-75
2022/12/29 06:16:18;;;;;;;4.10;3.90;;;;;;;10.37;97.46;99786.13;6123859;23;20072;-74
2022/12/29 06:18:46;;;;;;;4.20;4.00;;;;;;;10.58;97.48;99836.34;6134157;23;20415;-75
2022/12/29 06:21:13;;;;;;;5.00;4.00;;;;;;;9.33;98.30;99633.88;6138365;23;20029;-75
2022/12/29 06:23:39;;;;;;;4.20;4.00;;;;;;;10.30;97.47;99803.22;6144871;23;20020;-74
2022/12/29 06:26:06;;;;;;;4.78;4.57;;;;;;;10.64;97.59;99859.53;6114055;23;20060;-75
2022/12/29 06:28:32;;;;;;;4.10;3.90;;;;;;;10.08;97.55;99795.88;6141634;23;20455;-71
2022/12/29 06:30:59;;;;;;;4.53;4.30;;;;;;;10.11;96.79;99793.88;6141286;23;20031;-76
2022/12/29 06:33:25;;;;;;;4.10;3.90;;;;;;;9.36;96.47;99670.31;6142442;23;20024;-75
2022/12/29 06:35:52;;;;;;;4.07;3.88;;;;;;;9.59;95.17;99695.88;6128870;23;20460;-75
2022/12/29 06:38:18;;;;;;;4.28;4.07;;;;;;;10.47;95.61;99847.53;6137183;23;20537;-75
2022/12/29 06:40:44;;;;;;;4.10;3.90;;;;;;;10.16;94.89;99794.44;6112755;23;20059;-75
2022/12/29 06:43:11;;;;;;;4.13;3.92;;;;;;;10.36;94.46;99831.66;6142483;23;20095;-73
2022/12/29 06:45:39;;;;;;;4.22;4.03;;;;;;;10.60;94.98;99865.09;6138813;23;20072;-72
2022/12/29 06:48:07;;;;;;;4.75;4.28;;;;;;;10.14;94.34;99798.09;6139047;23;20021;-72
2022/12/29 06:50:33;;;;;;;4.45;4.25;;;;;;;10.69;93.99;99881.09;6141423;23;20020;-76
2022/12/29 06:52:59;;;;;;;4.20;4.00;;;;;;;10.69;94.04;99878.47;6142967;23;20028;-74
2022/12/29 06:55:26;;;;;;;4.47;4.18;;;;;;;10.47;93.78;99829.19;6140206;23;20629;-74
2022/12/29 06:57:58;;;;;;;4.45;4.20;;;;;;;10.41;93.44;99828.75;6141085;23;20329;-74
2022/12/29 07:00:25;;;;;;;4.30;4.10;;;;;;;10.57;94.12;99837.28;6142644;23;20025;-76
2022/12/29 07:02:52;;;;;;;4.35;4.10;;;;;;;9.91;94.86;99752.41;6136987;23;20037;-76
2022/12/29 07:05:18;;;;;;;4.18;3.97;;;;;;;10.52;95.01;99855.09;6141081;23;20044;-74
2022/12/29 07:07:44;;;;;;;4.18;3.97;;;;;;;10.62;95.54;99887.66;6156979;23;20030;-78
2022/12/29 07:10:11;;;;;;;6.97;4.20;;;;;;;10.63;95.71;99886.72;6142327;23;20036;-74
2022/12/29 07:12:37;;;;;;;4.03;3.83;;;;;;;9.97;96.45;99793.94;6148013;23;20364;-75
2022/12/29 07:15:04;;;;;;;4.50;4.10;;;;;;;10.56;97.49;99893.31;6132979;23;20612;-77
2022/12/29 07:17:30;;;;;;;4.95;4.65;;;;;;;10.61;97.76;99912.22;6114111;23;20029;-72
2022/12/29 07:19:57;;;;;;;4.50;4.30;;;;;;;10.18;98.01;99845.00;6122409;23;20200;-74
2022/12/29 07:22:23;;;;;;;4.30;4.10;;;;;;;10.73;96.78;99916.69;6130869;23;20539;-72
2022/12/29 07:24:49;;;;;;;4.30;4.10;;;;;;;10.64;97.34;99922.50;6134833;23;20707;-74
2022/12/29 07:27:16;;;;;;;5.40;5.10;;;;;;;10.56;97.44;99925.66;6122474;23;20033;-74
2022/12/29 07:29:42;;;;;;;4.30;4.00;;;;;;;10.38;98.31;99900.59;6144578;23;20075;-74
2022/12/29 07:32:08;;;;;;;4.25;4.05;;;;;;;9.79;98.37;99824.78;6138515;23;20103;-75
2022/12/29 07:34:35;;;;;;;4.10;3.90;;;;;;;10.29;98.27;99899.38;6140588;23;20331;-75
2022/12/29 07:37:01;;;;;;;4.28;4.00;;;;;;;10.14;97.80;99877.59;6137340;23;20149;-73
2022/12/29 07:39:28;;;;;;;4.35;4.15;;;;;;;10.61;97.04;99929.75;6136314;23;20026;-73
2022/12/29 07:41:54;;;;;;;4.43;4.18;;;;;;;10.45;96.74;99917.63;6140360;23;20700;-73
2022/12/29 07:44:29;;;;;;;4.10;3.90;;;;;;;10.21;97.07;99891.16;6138795;23;20025;-73
2022/12/29 07:46:56;;;;;;;4.53;4.32;;;;;;;10.37;98.34;99931.22;6145864;23;20049;-74
2022/12/29 07:49:26;;;;;;;4.25;4.05;;;;;;;10.23;98.48;99931.22;6140730;23;20041;-74
2022/12/29 07:51:53;;;;;;;4.20;4.00;;;;;;;10.39;99.20;99975.72;6119228;23;20104;-75
2022/12/29 07:54:19;;;;;;;3.88;3.75;;;;;;;10.44;99.27;99963.16;6131498;23;20033;-75
2022/12/29 07:56:46;;;;;;;4.15;3.85;;;;;;;10.21;98.21;99943.59;6112500;23;20072;-74
2022/12/29 07:59:12;;;;;;;4.82;4.63;;;;;;;10.27;96.51;99913.53;6137878;23;20494;-74
2022/12/29 08:01:39;;;;;;;4.13;3.92;;;;;;;10.11;96.13;99883.03;6141882;23;20623;-74
2022/12/29 08:04:05;;;;;;;4.22;4.03;;;;;;;9.90;96.19;99869.50;6100286;23;20634;-74
2022/12/29 08:06:32;;;;;;;4.20;4.00;;;;;;;10.09;96.45;99920.78;6108425;23;20040;-75
2022/12/29 08:09:00;;;;;;;4.28;4.07;;;;;;;10.11;97.00;99918.91;6137589;23;20597;-75
2022/12/29 08:11:38;;;;;;;4.63;4.32;;;;;;;10.32;96.92;99959.53;6142043;23;20020;-75
2022/12/29 08:14:04;;;;;;;4.20;4.00;;;;;;;10.15;95.27;99909.91;6112227;23;20255;-74
2022/12/29 08:16:32;;;;;;;4.22;4.03;;;;;;;10.22;94.87;99905.94;6140315;23;20021;-76
2022/12/29 08:18:58;;;;;;;4.32;4.13;;;;;;;10.52;94.51;99960.03;6133113;23;20035;-73
2022/12/29 08:21:27;;;;;;;4.25;4.05;;;;;;;10.19;94.89;99911.38;6145511;23;20567;-77
2022/12/29 08:23:53;;;;;;;4.07;3.88;;;;;;;10.52;95.41;99955.66;6117295;23;20580;-73
2022/12/29 08:26:20;;;;;;;4.10;3.90;;;;;;;9.99;94.72;99878.56;6137036;23;20025;-72
2022/12/29 08:28:46;;;;;;;4.22;4.03;;;;;;;10.48;94.67;99964.63;6134073;23;20062;-74
2022/12/29 08:31:13;;;;;;;4.20;4.00;;;;;;;10.50;95.07;99962.78;6139539;23;20326;-74
2022/12/29 08:33:39;;;;;;;4.03;3.85;;;;;;;10.06;95.28;99908.69;6137354;23;20181;-74
2022/12/29 08:36:07;;;;;;;4.40;4.20;;;;;;;10.34;94.02;99915.69;6100250;23;20358;-74
2022/12/29 08:38:33;;;;;;;4.45;4.05;;;;;;;10.65;93.84;99965.38;6138581;23;20020;-75
2022/12/29 08:41:03;;;;;;;4.75;4.35;;;;;;;10.41;93.43;99920.56;6127929;23;20080;-74
2022/12/29 08:43:29;;;;;;;4.57;4.22;;;;;;;10.54;91.86;99917.03;6143389;23;20192;-74
2022/12/29 08:45:58;;;;;;;4.15;3.85;;;;;;;10.68;91.31;99975.66;6096230;23;20054;-74
2022/12/29 08:48:25;;;;;;;4.57;4.15;;;;;;;10.80;89.40;99964.34;6153652;23;20017;-74
2022/12/29 08:50:52;;;;;;;4.20;4.00;;;;;;;9.47;89.08;99746.44;6147715;23;20096;-74
2022/12/29 08:53:19;;;;;;;4.07;3.83;;;;;;;10.81;88.45;99959.97;6148871;23;20243;-75
2022/12/29 08:55:47;;;;;;;5.32;4.82;;;;;;;10.81;87.37;99934.56;6126238;23;20246;-74
2022/12/29 08:58:14;;;;;;;4.65;4.45;;;;;;;10.90;86.26;99936.56;6128249;23;20048;-72
2022/12/29 09:00:42;;;;;;;4.72;4.43;;;;;;;10.28;86.84;99847.84;6154597;23;20029;-73
2022/12/29 09:03:08;;;;;;;4.53;4.32;;;;;;;10.73;87.40;99940.28;6157631;23;20044;-74
2022/12/29 09:05:35;;;;;;;4.20;4.00;;;;;;;10.75;86.94;99940.19;6153626;23;20027;-75
2022/12/29 09:08:02;;;;;;;6.68;4.82;;;;;;;10.13;87.05;99848.84;6144909;23;20010;-72
2022/12/29 09:52:54;;;;;;;4.32;4.13;;;;;;;11.52;76.99;99898.28;7890058;17;20555;-72
2022/12/29 09:55:25;;;;;;;4.80;4.60;;;;;;;11.45;76.58;99903.13;7844562;18;20671;-73
2022/12/29 09:57:56;;;;;;;4.55;4.25;;;;;;;11.39;76.60;99885.16;7903671;18;20036;-73
2022/12/29 10:09:19;;;;;;;4.45;4.13;;;;;;;11.28;75.05;99858.78;6175837;22;20436;-68
2022/12/29 10:12:11;;;;;;;4.70;4.30;;;;;;;11.29;75.60;99847.34;6131293;23;20053;-67
2022/12/29 10:15:02;;;;;;;4.60;4.40;;;;;;;11.27;75.24;99838.72;6130824;23;20025;-68
2022/12/29 10:17:37;;;;;;;5.07;4.78;;;;;;;11.22;75.17;99844.28;6123896;23;20021;-67
2022/12/29 10:20:18;;;;;;;4.68;4.28;;;;;;;11.02;74.68;99815.94;6130462;23;20018;-68
2022/12/29 10:23:03;;;;;;;4.05;3.85;;;;;;;11.14;74.71;99838.72;6118827;23;20021;-67
2022/12/29 10:25:35;;;;;;;6.15;4.80;;;;;;;11.18;74.69;99835.78;6115209;23;20021;-67
2022/12/29 10:28:06;;;;;;;5.85;5.45;;;;;;;11.35;74.83;99831.16;6122783;23;20010;-68
2022/12/29 10:30:34;;;;;;;5.60;5.10;;;;;;;11.27;74.45;99778.31;6131483;23;20468;-68
2022/12/29 10:33:11;;;;;;;7.63;5.47;;;;;;;11.34;73.19;99811.91;6109335;23;20017;-67
2022/12/29 10:35:40;;;;;;;5.53;5.03;;;;;;;11.41;72.35;99774.72;6128465;23;20025;-69
2022/12/29 10:38:20;;;;;;;4.68;4.47;;;;;;;11.45;72.17;99774.41;6124816;23;20422;-67
2022/12/29 10:41:22;;;;;;;12.80;5.53;;;;;;;11.83;71.90;99826.03;6077679;23;20017;-67
2022/12/29 10:43:52;;;;;;;4.38;4.18;;;;;;;11.34;71.59;99721.75;6100244;23;20190;-68
2022/12/29 10:46:23;;;;;;;4.40;4.20;;;;;;;11.87;71.34;99793.31;6124545;23;20096;-68
2022/12/29 10:48:50;;;;;;;9.02;4.40;;;;;;;11.92;72.05;99825.38;6125431;23;20025;-67
2022/12/29 10:51:45;;;;;;;4.65;4.45;;;;;;;12.02;71.45;99809.78;6120644;23;20517;-68
2022/12/29 10:54:21;;;;;;;5.18;4.90;;;;;;;11.95;71.07;99811.19;6100228;23;20514;-71
2022/12/29 10:56:56;;;;;;;4.50;4.30;;;;;;;11.61;70.83;99758.38;6127297;23;20029;-68
2022/12/29 10:59:32;;;;;;;4.50;4.30;;;;;;;11.71;70.66;99743.63;6124738;23;20024;-68
2022/12/29 11:02:11;;;;;;;9.55;4.72;;;;;;;12.18;70.73;99817.41;6122554;23;20084;-67
2022/12/29 11:04:55;;;;;;;4.57;4.38;;;;;;;12.27;71.13;99815.91;6106545;23;20632;-68
2022/12/29 11:07:23;;;;;;;4.97;4.68;;;;;;;12.35;70.71;99822.28;6132375;23;20017;-68
2022/12/29 11:09:53;;;;;;;5.05;4.75;;;;;;;12.14;69.89;99763.34;6100884;23;20024;-67
2022/12/29 11:12:21;;;;;;;4.90;4.70;;;;;;;12.63;69.68;99817.59;6097261;23;20033;-67
2022/12/29 11:15:02;;;;;;;4.60;4.40;;;;;;;12.32;69.19;99755.88;6098460;23;20103;-68
2022/12/29 11:17:28;;;;;;;4.97;4.55;;;;;;;12.48;68.53;99784.53;6093758;23;20010;-67
2022/12/29 11:19:54;;;;;;;4.40;4.20;;;;;;;12.73;69.15;99813.31;6091067;23;20084;-68
2022/12/29 11:22:24;;;;;;;6.05;4.75;;;;;;;12.83;68.07;99797.66;6115866;23;20022;-67
2022/12/29 11:24:53;;;;;;;5.60;4.82;;;;;;;12.59;68.07;99763.50;6091866;23;20074;-67
2022/12/29 11:27:22;;;;;;;6.15;5.63;;;;;;;12.77;68.24;99772.63;6111805;23;20018;-68
2022/12/29 11:29:50;;;;;;;5.00;4.70;;;;;;;12.66;66.86;99791.03;6104963;23;20047;-68
2022/12/29 11:32:26;;;;;;;17.95;5.63;;;;;;;12.38;66.96;99755.41;6099515;23;20040;-67
2022/12/29 11:34:57;;;;;;;4.78;4.47;;;;;;;12.41;66.91;99754.34;6110725;23;20605;-68
2022/12/29 11:37:38;;;;;;;4.95;4.60;;;;;;;12.10;67.39;99702.25;6097972;23;20045;-67
2022/12/29 11:40:19;;;;;;;4.75;4.55;;;;;;;12.28;66.97;99773.69;6108730;23;20020;-68
2022/12/29 11:42:58;;;;;;;6.10;4.80;;;;;;;12.05;67.48;99749.09;6110413;23;20124;-67
2022/12/29 11:45:28;;;;;;;4.60;4.40;;;;;;;11.56;68.32;99692.16;6097455;23;20012;-67
2022/12/29 11:47:57;;;;;;;4.50;4.30;;;;;;;11.83;68.40;99754.22;6113765;23;20076;-68
2022/12/29 11:50:29;;;;;;;4.95;4.43;;;;;;;11.73;69.21;99754.03;6080842;23;20118;-68
2022/12/29 11:53:02;;;;;;;5.68;4.85;;;;;;;11.75;69.95;99788.94;6114272;23;20708;-67
2022/12/29 11:55:32;;;;;;;5.70;5.30;;;;;;;11.67;68.98;99772.88;6078792;23;20100;-67
2022/12/29 11:58:02;;;;;;;4.72;4.47;;;;;;;11.49;69.86;99754.84;6101077;23;20467;-68
2022/12/29 12:00:33;;;;;;;4.80;4.57;;;;;;;11.63;70.54;99823.97;6083064;23;20590;-68
2022/12/29 12:03:19;;;;;;;4.53;4.22;;;;;;;11.44;70.26;99809.47;6101312;23;20025;-67
2022/12/29 12:05:57;;;;;;;5.03;4.72;;;;;;;11.46;70.93;99830.41;6093387;23;20623;-68
2022/12/29 12:08:38;;;;;;;4.90;4.70;;;;;;;11.44;71.72;99841.00;6104904;23;20018;-67
2022/12/29 12:11:35;;;;;;;4.65;4.45;;;;;;;11.40;71.90;99847.44;6106460;23;20084;-67
2022/12/29 12:14:12;;;;;;;6.28;4.30;;;;;;;11.04;70.77;99777.28;6109396;23;20439;-68
2022/12/29 12:16:46;;;;;;;4.43;4.22;;;;;;;11.32;71.45;99828.72;6081315;23;20090;-71
2022/12/29 12:19:32;;;;;;;4.60;4.40;;;;;;;11.34;71.53;99856.56;6101134;23;20036;-71
2022/12/29 12:22:10;;;;;;;6.15;4.25;;;;;;;11.36;72.39;99862.56;6082271;23;20616;-71
2022/12/29 12:24:44;;;;;;;5.25;4.85;;;;;;;11.35;72.72;99866.16;6106305;23;20506;-72
2022/12/29 12:27:22;;;;;;;5.10;4.70;;;;;;;11.36;72.51;99845.97;6083007;23;20018;-72
2022/12/29 12:30:01;;;;;;;8.25;4.70;;;;;;;11.42;71.51;99855.22;6107507;23;20033;-71
2022/12/29 12:32:46;;;;;;;4.68;4.28;;;;;;;10.95;71.60;99787.47;6086290;23;20029;-72
2022/12/29 12:35:51;;;;;;;4.88;4.50;;;;;;;11.13;71.97;99819.50;6113967;23;20443;-71
2022/12/29 12:38:39;;;;;;;5.05;4.65;;;;;;;11.37;72.03;99873.94;6086761;23;20038;-71
2022/12/29 12:41:09;;;;;;;7.38;4.20;;;;;;;10.33;72.94;99704.19;6107050;23;20142;-71
2022/12/29 12:43:45;;;;;;;4.63;4.20;;;;;;;11.29;73.01;99877.06;6109271;23;20534;-72
2022/12/29 12:46:31;;;;;;;5.75;4.50;;;;;;;11.32;72.83;99892.59;6109108;23;20081;-72
2022/12/29 12:49:16;;;;;;;4.75;4.50;;;;;;;11.32;73.27;99891.78;6101282;23;20098;-71
2022/12/29 12:51:53;;;;;;;4.50;4.30;;;;;;;11.22;72.08;99859.22;6103759;23;20024;-71
2022/12/29 12:54:40;;;;;;;4.07;3.88;;;;;;;11.36;71.92;99877.47;6104623;23;20040;-72
2022/12/29 12:57:33;;;;;;;4.82;4.55;;;;;;;11.31;72.34;99895.38;6103856;23;20028;-71
2022/12/29 13:00:08;;;;;;;;;;;;;;;11.29;71.97;99878.88;6109695;23;20056;-72
2022/12/29 13:02:49;;;;;;;4.40;4.20;;;;;;;10.81;72.41;99815.63;6107288;23;19937;-72
2022/12/29 13:05:25;;;;;;;5.53;4.80;;;;;;;11.33;72.08;99898.72;6082055;23;20035;-72
2022/12/29 13:08:38;;;;;;;4.38;4.10;;;;;;;11.24;72.14;99873.06;6086754;23;20030;-72
2022/12/29 13:11:23;;;;;;;4.80;4.30;;;;;;;11.07;72.37;99854.06;6039061;23;20136;-70
2022/12/29 13:14:07;;;;;;;6.03;4.20;;;;;;;10.98;72.30;99841.53;6063144;23;20040;-72
2022/12/29 13:16:36;;;;;;;4.70;4.43;;;;;;;11.36;70.68;99870.44;6109987;23;20016;-70
2022/12/29 13:19:06;;;;;;;4.43;4.03;;;;;;;11.36;70.97;99866.97;6111971;23;20179;-71